createdAt,value
2018-06-10T00:01:28.223Z,24.80
2018-06-10T00:04:01.965Z,25.00
2018-06-10T00:06:35.612Z,23.83
2018-06-10T00:09:09.429Z,22.92
2018-06-10T00:11:43.317Z,22.02
2018-06-10T00:14:17.088Z,23.48
2018-06-10T00:16:50.758Z,24.60
2018-06-10T00:19:24.589Z,22.67
2018-06-10T00:21:58.290Z,25.42
2018-06-10T00:24:32.916Z,24.92
2018-06-10T00:27:06.716Z,23.35
2018-06-10T00:29:40.496Z,24.17
2018-06-10T00:32:14.233Z,23.87
2018-06-10T00:34:48.856Z,26.08
2018-06-10T00:37:22.445Z,25.02
2018-06-10T00:39:56.233Z,24.48
2018-06-10T00:42:30.753Z,25.67
2018-06-10T00:45:04.579Z,25.85
2018-06-10T00:47:38.397Z,25.85
2018-06-10T00:50:12.153Z,26.42
2018-06-10T00:52:45.868Z,25.92
2018-06-10T00:55:19.659Z,25.23
2018-06-10T00:57:53.303Z,27.10
2018-06-10T01:00:27.043Z,25.48
2018-06-10T01:03:00.876Z,26.30
2018-06-10T01:05:35.337Z,29.70
2018-06-10T01:08:09.074Z,26.87
2018-06-10T01:10:42.691Z,26.42
2018-06-10T01:13:17.239Z,26.85
2018-06-10T01:15:51.091Z,27.55
2018-06-10T01:18:24.929Z,27.83
2018-06-10T01:20:58.767Z,27.50
2018-06-10T01:23:32.498Z,27.98
2018-06-10T01:26:06.137Z,28.42
2018-06-10T01:28:39.911Z,30.80
2018-06-10T01:31:13.600Z,27.92
2018-06-10T01:33:47.306Z,29.92
2018-06-10T01:36:21.712Z,31.40
2018-06-10T01:38:55.423Z,31.62
2018-06-10T01:41:29.122Z,30.62
2018-06-10T01:44:03.632Z,28.48
2018-06-10T01:46:37.495Z,28.65
2018-06-10T01:49:11.259Z,30.58
2018-06-10T01:51:45.023Z,30.80
2018-06-10T01:54:18.843Z,30.70
2018-06-10T01:56:52.574Z,31.60
2018-06-10T01:59:26.375Z,31.67
2018-06-10T02:02:00.114Z,32.83
2018-06-10T02:04:34.499Z,31.10
2018-06-10T02:07:08.151Z,30.02
2018-06-10T02:09:41.823Z,30.40
2018-06-10T02:12:15.661Z,31.58
2018-06-10T02:14:49.436Z,30.70
2018-06-10T02:17:23.951Z,28.45
2018-06-10T02:19:57.773Z,30.88
2018-06-10T02:22:31.548Z,30.95
2018-06-10T02:25:05.252Z,28.12
2018-06-10T02:27:39.123Z,28.87
2018-06-10T02:30:13.692Z,27.87
2018-06-10T02:32:47.537Z,28.00
2018-06-10T02:35:21.267Z,27.90
2018-06-10T02:37:54.981Z,28.80
2018-06-10T02:40:29.628Z,30.90
2018-06-10T02:43:04.152Z,45.30
2018-06-10T02:45:37.919Z,31.58
2018-06-10T02:48:11.747Z,28.40
2018-06-10T02:50:46.288Z,30.12
2018-06-10T02:53:20.040Z,30.80
2018-06-10T02:55:53.805Z,29.50
2018-06-10T02:58:27.552Z,28.27
2018-06-10T03:01:01.323Z,30.95
2018-06-10T03:03:35.040Z,30.23
2018-06-10T03:06:08.885Z,32.88
2018-06-10T03:08:42.548Z,30.58
2018-06-10T03:11:16.391Z,30.33
2018-06-10T03:13:50.271Z,29.20
2018-06-10T03:16:23.939Z,29.67
2018-06-10T03:18:57.735Z,28.35
2018-06-10T03:21:31.380Z,28.65
2018-06-10T03:24:05.180Z,29.40
2018-06-10T03:26:39.040Z,28.73
2018-06-10T03:29:13.481Z,27.60
2018-06-10T03:31:47.139Z,28.73
2018-06-10T03:34:20.886Z,27.90
2018-06-10T03:36:54.596Z,28.42
2018-06-10T03:39:28.319Z,29.25
2018-06-10T03:42:02.127Z,29.33
2018-06-10T03:44:35.924Z,28.50
2018-06-10T03:47:09.615Z,28.90
2018-06-10T03:49:43.372Z,30.30
2018-06-10T03:52:17.052Z,29.60
2018-06-10T03:54:50.777Z,28.85
2018-06-10T03:57:25.447Z,29.33
2018-06-10T03:59:59.152Z,29.52
2018-06-10T04:02:32.990Z,28.65
2018-06-10T04:05:06.704Z,28.98
2018-06-10T04:07:40.493Z,28.25
2018-06-10T04:10:14.292Z,31.67
2018-06-10T04:12:48.112Z,29.08
2018-06-10T04:15:22.737Z,30.98
2018-06-10T04:17:57.236Z,30.40
2018-06-10T04:20:31.004Z,30.65
2018-06-10T04:23:04.763Z,30.83
2018-06-10T04:25:38.481Z,30.77
2018-06-10T04:28:12.300Z,30.08
2018-06-10T04:30:46.104Z,31.48
2018-06-10T04:33:19.844Z,31.60
2018-06-10T04:35:53.561Z,28.50
2018-06-10T04:38:27.901Z,27.50
2018-06-10T04:41:03.175Z,29.05
2018-06-10T04:43:36.860Z,29.92
2018-06-10T04:46:10.600Z,30.17
2018-06-10T04:48:44.220Z,30.05
2018-06-10T04:51:17.952Z,31.08
2018-06-10T04:53:51.807Z,30.80
2018-06-10T04:56:25.555Z,29.85
2018-06-10T04:58:59.343Z,28.95
2018-06-10T05:01:33.139Z,30.08
2018-06-10T05:04:06.937Z,31.00
2018-06-10T05:06:41.399Z,29.58
2018-06-10T05:09:15.293Z,28.75
2018-06-10T05:11:49.935Z,27.45
2018-06-10T05:14:24.491Z,26.00
2018-06-10T05:16:58.968Z,27.20
2018-06-10T05:19:32.745Z,26.03
2018-06-10T05:22:06.457Z,26.63
2018-06-10T05:24:40.204Z,26.80
2018-06-10T05:27:13.932Z,28.80
2018-06-10T05:29:47.726Z,29.27
2018-06-10T05:32:21.535Z,29.13
2018-06-10T05:34:56.154Z,28.73
2018-06-10T05:37:30.736Z,29.53
2018-06-10T05:40:04.370Z,27.90
2018-06-10T05:42:38.083Z,27.83
2018-06-10T05:45:11.844Z,30.15
2018-06-10T05:47:45.735Z,28.50
2018-06-10T05:50:20.325Z,29.20
2018-06-10T05:52:54.241Z,27.70
2018-06-10T05:55:27.906Z,27.67
2018-06-10T05:58:01.800Z,27.30
2018-06-10T06:00:35.729Z,25.40
2018-06-10T06:03:09.596Z,28.37
2018-06-10T06:05:43.323Z,28.33
2018-06-10T06:08:17.218Z,27.87
2018-06-10T06:10:50.907Z,28.67
2018-06-10T06:13:24.666Z,25.63
2018-06-10T06:15:58.498Z,28.80
2018-06-10T06:18:32.188Z,27.40
2018-06-10T06:21:06.861Z,27.45
2018-06-10T06:23:40.627Z,27.63
2018-06-10T06:26:15.279Z,27.07
2018-06-10T06:28:48.978Z,27.57
2018-06-10T06:31:23.460Z,27.13
2018-06-10T06:33:57.203Z,29.35
2018-06-10T06:36:31.703Z,28.37
2018-06-10T06:39:05.440Z,27.90
2018-06-10T06:41:39.165Z,29.20
2018-06-10T06:44:12.903Z,28.40
2018-06-10T06:46:46.619Z,26.50
2018-06-10T06:49:20.481Z,27.13
2018-06-10T06:51:54.153Z,26.63
2018-06-10T06:54:28.016Z,27.57
2018-06-10T06:57:01.893Z,28.40
2018-06-10T06:59:35.567Z,26.03
2018-06-10T07:02:09.359Z,25.60
2018-06-10T07:04:43.158Z,27.87
2018-06-10T07:07:16.963Z,28.90
2018-06-10T07:09:50.757Z,29.00
2018-06-10T07:12:24.568Z,25.90
2018-06-10T07:14:58.415Z,26.00
2018-06-10T07:17:32.956Z,25.73
2018-06-10T07:20:06.761Z,26.57
2018-06-10T07:22:40.525Z,27.13
2018-06-10T07:25:14.292Z,25.40
2018-06-10T07:27:48.152Z,25.87
2018-06-10T07:30:21.977Z,25.20
2018-06-10T07:32:55.740Z,25.40
2018-06-10T07:35:29.352Z,25.40
2018-06-10T07:38:03.171Z,26.73
2018-06-10T07:40:37.697Z,26.40
2018-06-10T07:43:12.294Z,24.30
2018-06-10T07:45:46.785Z,24.53
2018-06-10T07:48:21.450Z,23.40
2018-06-10T07:50:55.291Z,23.83
2018-06-10T07:53:29.039Z,23.07
2018-06-10T07:56:02.863Z,23.07
2018-06-10T07:58:38.292Z,23.13
2018-06-10T08:01:11.887Z,24.57
2018-06-10T08:03:45.739Z,20.90
2018-06-10T08:06:19.534Z,23.03
2018-06-10T08:08:53.456Z,20.47
2018-06-10T08:11:27.044Z,21.60
2018-06-10T08:14:00.877Z,22.43
2018-06-10T08:16:35.452Z,20.57
2018-06-10T08:19:09.281Z,21.53
2018-06-10T08:21:43.071Z,24.00
2018-06-10T08:24:16.813Z,22.17
2018-06-10T08:26:50.634Z,22.00
2018-06-10T08:29:24.438Z,22.13
2018-06-10T08:31:58.999Z,22.63
2018-06-10T08:34:33.538Z,22.87
2018-06-10T08:37:07.343Z,23.10
2018-06-10T08:39:41.756Z,23.27
2018-06-10T08:42:16.260Z,22.30
2018-06-10T08:44:50.113Z,24.20
2018-06-10T08:47:23.871Z,23.23
2018-06-10T08:49:58.438Z,24.87
2018-06-10T08:52:32.232Z,25.23
2018-06-10T08:55:06.090Z,21.67
2018-06-10T08:57:39.822Z,24.43
2018-06-10T09:00:13.475Z,23.53
2018-06-10T09:02:48.113Z,23.10
2018-06-10T09:05:21.812Z,24.13
2018-06-10T09:07:55.671Z,24.10
2018-06-10T09:10:29.485Z,25.17
2018-06-10T09:13:04.001Z,22.53
2018-06-10T09:15:37.824Z,22.80
2018-06-10T09:18:11.651Z,23.00
2018-06-10T09:20:46.308Z,23.80
2018-06-10T09:23:19.959Z,22.97
2018-06-10T09:25:53.785Z,24.30
2018-06-10T09:28:27.597Z,24.57
2018-06-10T09:31:01.392Z,23.97
2018-06-10T09:33:35.316Z,22.50
2018-06-10T09:36:09.869Z,23.80
2018-06-10T09:38:43.606Z,24.63
2018-06-10T09:41:18.094Z,24.27
2018-06-10T09:43:51.822Z,24.53
2018-06-10T09:46:25.696Z,22.60
2018-06-10T09:49:00.369Z,24.40
2018-06-10T09:51:34.002Z,23.47
2018-06-10T09:54:07.864Z,24.57
2018-06-10T09:56:41.598Z,25.70
2018-06-10T09:59:15.437Z,22.13
2018-06-10T10:01:49.232Z,21.23
2018-06-10T10:04:22.915Z,21.60
2018-06-10T10:06:56.701Z,21.33
2018-06-10T10:09:30.413Z,21.20
2018-06-10T10:12:04.240Z,21.23
2018-06-10T10:14:38.047Z,19.23
2018-06-10T10:17:11.604Z,21.37
2018-06-10T10:19:45.432Z,20.10
2018-06-10T10:22:19.156Z,20.07
2018-06-10T10:24:53.743Z,20.67
2018-06-10T10:27:28.372Z,18.93
2018-06-10T10:30:02.134Z,17.40
2018-06-10T10:32:35.912Z,21.27
2018-06-10T10:35:09.547Z,18.23
2018-06-10T10:37:43.368Z,15.37
2018-06-10T10:40:17.168Z,16.20
2018-06-10T10:42:51.120Z,15.13
2018-06-10T10:45:24.763Z,14.97
2018-06-10T10:47:58.424Z,19.40
2018-06-10T10:50:32.249Z,18.87
2018-06-10T10:53:06.806Z,17.20
2018-06-10T10:55:41.278Z,17.57
2018-06-10T10:58:15.206Z,17.30
2018-06-10T11:00:49.060Z,18.23
2018-06-10T11:03:23.627Z,17.77
2018-06-10T11:05:57.339Z,17.77
2018-06-10T11:08:31.286Z,16.10
2018-06-10T11:11:04.996Z,14.53
2018-06-10T11:13:39.427Z,15.70
2018-06-10T11:16:13.059Z,14.80
2018-06-10T11:18:46.739Z,15.20
2018-06-10T11:21:20.631Z,14.80
2018-06-10T11:23:55.163Z,15.17
2018-06-10T11:26:29.018Z,15.00
2018-06-10T11:29:02.843Z,13.60
2018-06-10T11:31:37.420Z,14.67
2018-06-10T11:34:11.854Z,14.50
2018-06-10T11:36:45.520Z,14.60
2018-06-10T11:39:19.403Z,15.73
2018-06-10T11:41:53.157Z,15.40
2018-06-10T11:44:26.970Z,14.27
2018-06-10T11:47:00.810Z,15.40
2018-06-10T11:49:35.383Z,14.37
2018-06-10T11:52:09.949Z,15.20
2018-06-10T11:54:43.737Z,14.47
2018-06-10T11:57:17.575Z,15.13
2018-06-10T11:59:51.335Z,13.77
2018-06-10T12:02:24.959Z,14.47
2018-06-10T12:04:58.828Z,14.07
2018-06-10T12:07:32.599Z,13.37
2018-06-10T12:10:06.468Z,12.80
2018-06-10T12:12:41.141Z,13.57
2018-06-10T12:15:14.864Z,11.27
2018-06-10T12:17:48.712Z,12.67
2018-06-10T12:20:22.552Z,12.40
2018-06-10T12:22:56.387Z,12.80
2018-06-10T12:25:30.222Z,14.07
2018-06-10T12:28:04.165Z,13.10
2018-06-10T12:30:37.931Z,13.00
2018-06-10T12:33:11.627Z,16.93
2018-06-10T12:35:46.242Z,14.53
2018-06-10T12:38:20.067Z,12.97
2018-06-10T12:40:54.019Z,12.60
2018-06-10T12:43:27.826Z,11.63
2018-06-10T12:46:01.583Z,12.30
2018-06-10T12:48:36.100Z,12.57
2018-06-10T12:51:09.792Z,13.50
2018-06-10T12:53:44.342Z,11.50
2018-06-10T12:56:18.243Z,11.93
2018-06-10T12:58:51.962Z,11.97
2018-06-10T13:01:25.792Z,12.40
2018-06-10T13:03:59.568Z,11.73
2018-06-10T13:06:33.140Z,11.57
2018-06-10T13:09:06.901Z,10.57
2018-06-10T13:11:40.762Z,12.50
2018-06-10T13:14:14.499Z,12.63
2018-06-10T13:16:48.316Z,12.93
2018-06-10T13:19:22.029Z,10.90
2018-06-10T13:21:55.879Z,11.60
2018-06-10T13:24:29.684Z,12.83
2018-06-10T13:27:03.513Z,11.83
2018-06-10T13:29:37.303Z,11.83
2018-06-10T13:32:11.108Z,13.03
2018-06-10T13:34:44.931Z,11.07
2018-06-10T13:37:18.738Z,10.73
2018-06-10T13:39:53.423Z,10.27
2018-06-10T13:42:27.172Z,10.77
2018-06-10T13:45:00.997Z,10.47
2018-06-10T13:47:34.882Z,9.70
2018-06-10T13:50:08.531Z,10.43
2018-06-10T13:52:42.359Z,9.37
2018-06-10T13:55:16.998Z,10.03
2018-06-10T13:57:50.760Z,10.10
2018-06-10T14:00:24.632Z,12.50
2018-06-10T14:02:58.433Z,11.70
2018-06-10T14:05:32.396Z,10.00
2018-06-10T14:08:06.115Z,9.90
2018-06-10T14:10:39.975Z,10.00
2018-06-10T14:13:13.747Z,10.37
2018-06-10T14:15:48.386Z,10.87
2018-06-10T14:18:22.091Z,11.27
2018-06-10T14:20:56.743Z,10.07
2018-06-10T14:23:30.335Z,12.60
2018-06-10T14:26:04.199Z,11.67
2018-06-10T14:28:37.926Z,17.60
2018-06-10T14:31:11.776Z,10.20
2018-06-10T14:33:45.529Z,9.27
2018-06-10T14:36:19.283Z,10.80
2018-06-10T14:38:53.153Z,10.57
2018-06-10T14:41:26.849Z,11.40
2018-06-10T14:44:00.697Z,11.00
2018-06-10T14:46:34.575Z,12.13
2018-06-10T14:49:08.280Z,10.53
2018-06-10T14:51:42.025Z,11.17
2018-06-10T14:54:15.837Z,12.10
2018-06-10T14:56:49.591Z,10.00
2018-06-10T14:59:23.995Z,10.70
2018-06-10T15:01:57.809Z,11.30
2018-06-10T15:04:31.463Z,10.80
2018-06-10T15:07:05.230Z,10.90
2018-06-10T15:09:39.755Z,11.60
2018-06-10T15:12:13.512Z,11.50
2018-06-10T15:14:47.385Z,10.73
2018-06-10T15:17:21.179Z,10.70
2018-06-10T15:19:54.953Z,10.07
2018-06-10T15:22:29.510Z,10.23
2018-06-10T15:25:03.271Z,11.60
2018-06-10T15:27:37.053Z,10.07
2018-06-10T15:30:10.880Z,10.67
2018-06-10T15:32:44.696Z,9.93
2018-06-10T15:35:18.491Z,12.47
2018-06-10T15:37:53.033Z,10.87
2018-06-10T15:40:26.879Z,11.20
2018-06-10T15:43:00.642Z,11.43
2018-06-10T15:45:34.421Z,11.50
2018-06-10T15:48:08.196Z,10.70
2018-06-10T15:50:41.960Z,10.93
2018-06-10T15:53:15.787Z,10.23
2018-06-10T15:55:49.622Z,10.33
2018-06-10T15:58:24.215Z,9.63
2018-06-10T16:00:58.845Z,13.13
2018-06-10T16:03:32.679Z,12.43
2018-06-10T16:08:38.834Z,9.73
2018-06-10T16:11:13.561Z,9.37
2018-06-10T16:13:47.329Z,8.37
2018-06-10T16:16:22.020Z,8.63
2018-06-10T16:18:55.744Z,9.63
2018-06-10T16:21:29.549Z,8.07
2018-06-10T16:24:04.071Z,7.53
2018-06-10T16:26:37.990Z,8.60
2018-06-10T16:29:11.678Z,8.03
2018-06-10T16:31:45.450Z,9.77
2018-06-10T16:34:19.261Z,9.60
2018-06-10T16:36:53.898Z,8.93
2018-06-10T16:39:27.711Z,9.33
2018-06-10T16:42:01.484Z,7.23
2018-06-10T16:44:35.284Z,6.63
2018-06-10T16:47:09.672Z,4.97
2018-06-10T16:49:44.108Z,6.37
2018-06-10T16:52:17.852Z,6.10
2018-06-10T16:54:51.646Z,5.47
2018-06-10T16:57:25.456Z,5.70
2018-06-10T16:59:59.387Z,5.77
2018-06-10T17:02:33.997Z,5.47
2018-06-10T17:05:07.907Z,6.57
2018-06-10T17:07:41.653Z,5.33
2018-06-10T17:10:15.468Z,5.03
2018-06-10T17:12:49.988Z,4.20
2018-06-10T17:15:23.800Z,5.50
2018-06-10T17:17:57.505Z,5.30
2018-06-10T17:20:31.215Z,7.00
2018-06-10T17:23:05.848Z,4.80
2018-06-10T17:25:39.653Z,5.23
2018-06-10T17:28:14.260Z,5.57
2018-06-10T17:30:48.120Z,7.50
2018-06-10T17:33:21.915Z,5.47
2018-06-10T17:35:55.700Z,5.37
2018-06-10T17:38:29.463Z,9.90
2018-06-10T17:41:03.322Z,5.00
2018-06-10T17:43:37.131Z,5.43
2018-06-10T17:46:10.956Z,5.83
2018-06-10T17:48:44.833Z,5.37
2018-06-10T17:51:18.725Z,5.70
2018-06-10T17:53:52.664Z,6.10
2018-06-10T17:56:27.265Z,5.40
2018-06-10T17:59:01.004Z,5.20
2018-06-10T18:01:34.787Z,4.90
2018-06-10T18:04:08.555Z,5.40
2018-06-10T18:06:42.458Z,5.30
2018-06-10T18:09:17.032Z,5.20
2018-06-10T18:11:50.851Z,8.10
2018-06-10T18:14:24.645Z,4.70
2018-06-10T18:16:58.280Z,5.33
2018-06-10T18:19:32.848Z,6.13
2018-06-10T18:22:06.567Z,5.47
2018-06-10T18:24:40.395Z,6.63
2018-06-10T18:27:14.344Z,6.03
2018-06-10T18:29:48.082Z,5.00
2018-06-10T18:32:22.610Z,5.00
2018-06-10T18:34:56.191Z,7.40
2018-06-10T18:37:30.011Z,5.33
2018-06-10T18:40:03.872Z,5.60
2018-06-10T18:42:38.434Z,6.30
2018-06-10T18:45:12.288Z,5.53
2018-06-10T18:47:46.213Z,5.73
2018-06-10T18:50:20.729Z,6.20
2018-06-10T18:52:54.388Z,5.97
2018-06-10T18:55:28.094Z,6.43
2018-06-10T18:58:02.620Z,5.37
2018-06-10T19:00:36.453Z,12.27
2018-06-10T19:03:10.195Z,5.90
2018-06-10T19:05:44.073Z,7.17
2018-06-10T19:08:18.715Z,4.80
2018-06-10T19:10:52.505Z,7.33
2018-06-10T19:13:27.079Z,6.00
2018-06-10T19:16:01.742Z,5.63
2018-06-10T19:18:35.473Z,7.53
2018-06-10T19:21:09.203Z,6.10
2018-06-10T19:23:43.005Z,5.80
2018-06-10T19:26:16.795Z,5.80
2018-06-10T19:28:50.484Z,5.20
2018-06-10T19:31:24.221Z,5.80
2018-06-10T19:33:58.157Z,5.33
2018-06-10T19:36:32.644Z,5.87
2018-06-10T19:39:06.528Z,6.27
2018-06-10T19:41:40.153Z,6.73
2018-06-10T19:44:13.916Z,7.23
2018-06-10T19:46:48.388Z,7.00
2018-06-10T19:49:22.226Z,6.67
2018-06-10T19:51:55.965Z,7.80
2018-06-10T19:54:29.815Z,6.20
2018-06-10T19:57:04.320Z,7.00
2018-06-10T19:59:38.121Z,6.93
2018-06-10T20:02:11.967Z,9.43
2018-06-10T20:04:46.460Z,7.90
2018-06-10T20:07:20.304Z,11.00
2018-06-10T20:09:54.230Z,10.03
2018-06-10T20:12:28.043Z,10.10
2018-06-10T20:15:02.620Z,8.17
2018-06-10T20:17:36.358Z,8.80
2018-06-10T20:20:10.167Z,11.53
2018-06-10T20:22:44.635Z,9.47
2018-06-10T20:25:18.257Z,9.80
2018-06-10T20:27:52.888Z,10.50
2018-06-10T20:30:26.766Z,8.00
2018-06-10T20:33:00.544Z,8.03
2018-06-10T20:35:34.265Z,8.90
2018-06-10T20:38:08.053Z,9.17
2018-06-10T20:40:41.867Z,9.67
2018-06-10T20:43:15.721Z,7.50
2018-06-10T20:45:49.595Z,7.83
2018-06-10T20:48:23.447Z,7.80
2018-06-10T20:50:58.004Z,6.63
2018-06-10T20:53:32.752Z,6.93
2018-06-10T20:56:06.532Z,7.53
2018-06-10T20:58:41.106Z,8.60
2018-06-10T21:01:14.769Z,7.37
2018-06-10T21:03:48.500Z,8.83
2018-06-10T21:06:22.345Z,8.10
2018-06-10T21:08:56.147Z,8.20
2018-06-10T21:11:29.920Z,8.97
2018-06-10T21:14:03.666Z,8.03
2018-06-10T21:16:37.463Z,9.23
2018-06-10T21:19:11.227Z,7.27
2018-06-10T21:21:45.061Z,7.13
2018-06-10T21:24:18.661Z,8.33
2018-06-10T21:26:52.291Z,9.83
2018-06-10T21:29:26.039Z,7.80
2018-06-10T21:31:59.937Z,7.43
2018-06-10T21:34:33.692Z,11.77
2018-06-10T21:37:08.214Z,7.17
2018-06-10T21:39:42.757Z,7.50
2018-06-10T21:42:16.513Z,7.53
2018-06-10T21:44:50.412Z,7.13
2018-06-10T21:47:24.056Z,7.93
2018-06-10T21:49:57.839Z,7.53
2018-06-10T21:52:32.355Z,8.13
2018-06-10T21:55:06.082Z,7.90
2018-06-10T21:57:39.868Z,8.13
2018-06-10T22:00:13.571Z,8.60
2018-06-10T22:02:47.378Z,6.90
2018-06-10T22:05:21.692Z,7.97
2018-06-10T22:07:55.403Z,6.80
2018-06-10T22:10:29.925Z,9.50
2018-06-10T22:13:04.460Z,8.50
2018-06-10T22:15:38.147Z,10.20
2018-06-10T22:18:11.879Z,7.73
2018-06-10T22:20:45.689Z,8.10
2018-06-10T22:23:19.483Z,8.13
2018-06-10T22:25:53.240Z,9.37
2018-06-10T22:28:27.679Z,8.33
2018-06-10T22:31:01.448Z,9.47
2018-06-10T22:33:35.226Z,9.18
2018-06-10T22:36:09.817Z,8.90
2018-06-10T22:38:44.337Z,8.73
2018-06-10T22:41:18.815Z,8.32
2018-06-10T22:43:52.655Z,8.40
2018-06-10T22:46:26.387Z,10.30
2018-06-10T22:49:00.028Z,7.82
2018-06-10T22:51:33.725Z,7.82
2018-06-10T22:54:10.264Z,10.48
2018-06-10T22:56:43.915Z,8.82
2018-06-10T22:59:17.728Z,8.63
2018-06-10T23:01:51.541Z,8.27
2018-06-10T23:04:25.157Z,8.50
2018-06-10T23:06:59.069Z,9.63
2018-06-10T23:09:32.712Z,8.68
2018-06-10T23:12:07.329Z,8.43
2018-06-10T23:14:41.048Z,8.48
2018-06-10T23:17:15.577Z,9.02
2018-06-10T23:19:49.280Z,9.00
2018-06-10T23:22:22.913Z,8.80
2018-06-10T23:24:56.807Z,8.32
2018-06-10T23:27:31.365Z,8.23
2018-06-10T23:30:05.964Z,9.27
2018-06-10T23:32:40.516Z,9.98
2018-06-10T23:35:14.152Z,9.27
2018-06-10T23:37:47.946Z,10.75
2018-06-10T23:40:22.483Z,10.95
2018-06-10T23:42:56.261Z,9.52
2018-06-10T23:45:30.700Z,9.77
2018-06-10T23:48:04.490Z,9.73
2018-06-10T23:50:38.330Z,9.02
2018-06-10T23:53:11.895Z,11.75
2018-06-10T23:55:46.531Z,8.48
2018-06-10T23:58:20.328Z,9.48
